»·PEaware :: N76450 KMYF-KSNA

N76450 :: KMYF-KSNA

FLIGHT INFORMATION

Flight Status: Arrived
Operator: Privately registered:
United States
More flights under this callsign
Pilot: Craig B. (17752)
Aircraft: CESSNA 172 SKYHAWK
(C172)
More flights by this aircraft type
Origin: KMYF Montgomery
United States
Destination: KSNA John Wayne-Orange Co
United States
More flights between these airports :: More routes between these airports
Route: MZB V363 POXKU
File this flight plan on PilotEdge
Remarks: Read clearance slowly, please. Medical issue. Thank you.
Altitude:
(Current/Filed)
9,000ft
Speed:
(Current/Filed)
95kts
Departed: 05-Dec-18 07:00 AM
Arrived: 05-Dec-18 07:49 AM
Distance/Time
Traveled:
0nm/0:49
Distance/Time
To Go:
Arrived

Flight Plot

Page will automatically refresh every two minutes.

Flight plan parsing failed; only flown route is shown


Map Options




Map Legend


Flown Route
Filed Route
Departure Airport
Arrival Airport
Navaid (VOR, NDB)
Fix

Horizontal Profiles

Position Reports

Time Latitude Longitude Heading Altitude Ground
Speed
05-Dec-18 06:40 32.812893 -117.140493 201 430ft 0kts
05-Dec-18 06:41 32.812893 -117.140493 201 430ft 0kts
05-Dec-18 06:42 32.812892 -117.140494 202 430ft 0kts
05-Dec-18 06:43 32.812891 -117.140494 202 430ft 0kts
05-Dec-18 06:44 32.812891 -117.140494 202 430ft 0kts
05-Dec-18 06:45 32.812890 -117.140495 202 430ft 0kts
05-Dec-18 06:46 32.812889 -117.140495 202 430ft 0kts
05-Dec-18 06:51 32.812893 -117.140493 201 430ft 0kts
05-Dec-18 06:52 32.812893 -117.140493 201 430ft 0kts
05-Dec-18 06:53 32.812893 -117.140493 202 430ft 0kts
05-Dec-18 06:54 32.812892 -117.140494 202 430ft 0kts
05-Dec-18 06:55 32.812786 -117.140488 148 430ft 2kts
05-Dec-18 06:56 32.813789 -117.139322 90 430ft 5kts
05-Dec-18 06:57 32.812760 -117.136544 101 430ft 5kts
05-Dec-18 06:58 32.813797 -117.137293 291 430ft 40kts
05-Dec-18 06:59 32.825633 -117.157347 290 803ft 83kts
05-Dec-18 07:00 32.810256 -117.173098 216 1514ft 75kts
05-Dec-18 07:01 32.796060 -117.190381 239 2178ft 71kts
05-Dec-18 07:02 32.787972 -117.210547 240 2789ft 63kts
05-Dec-18 07:03 32.783433 -117.229113 321 3268ft 78kts
05-Dec-18 07:04 32.802588 -117.234049 338 3899ft 67kts
05-Dec-18 07:05 32.825267 -117.243442 339 4025ft 109kts
05-Dec-18 07:06 32.855676 -117.256108 339 3969ft 117kts
05-Dec-18 07:07 32.886479 -117.268985 339 3970ft 117kts
05-Dec-18 07:08 32.917294 -117.281880 339 3971ft 117kts
05-Dec-18 07:09 32.948233 -117.294836 339 3964ft 118kts
05-Dec-18 07:10 32.979246 -117.307832 339 3959ft 117kts
05-Dec-18 07:11 33.010157 -117.320794 339 3958ft 117kts
05-Dec-18 07:12 33.040990 -117.333729 339 3957ft 117kts
05-Dec-18 07:13 33.072006 -117.346762 339 3956ft 117kts
05-Dec-18 07:14 33.102829 -117.359713 339 3959ft 117kts
05-Dec-18 07:15 33.133758 -117.372715 339 3959ft 117kts
05-Dec-18 07:16 33.164678 -117.385713 339 3947ft 117kts
05-Dec-18 07:17 33.176677 -117.418766 281 3948ft 114kts
05-Dec-18 07:18 33.184144 -117.455724 281 3947ft 114kts
05-Dec-18 07:19 33.191585 -117.492428 281 3952ft 114kts
05-Dec-18 07:20 33.199039 -117.529225 281 3951ft 114kts
05-Dec-18 07:21 33.212774 -117.561837 321 3970ft 115kts
05-Dec-18 07:22 33.239131 -117.584662 322 3946ft 117kts
05-Dec-18 07:23 33.265463 -117.607336 322 3946ft 116kts
05-Dec-18 07:24 33.291873 -117.630086 322 3947ft 116kts
05-Dec-18 07:25 33.318137 -117.652724 322 3947ft 116kts
05-Dec-18 07:26 33.344889 -117.674645 340 3944ft 117kts
05-Dec-18 07:27 33.377260 -117.681094 350 3944ft 118kts
05-Dec-18 07:28 33.409802 -117.686545 350 3945ft 117kts
05-Dec-18 07:29 33.442269 -117.691967 350 3947ft 118kts
05-Dec-18 07:30 33.474969 -117.697408 350 3946ft 118kts
05-Dec-18 07:31 33.507749 -117.702942 350 3943ft 119kts
05-Dec-18 07:32 33.540451 -117.708423 350 3941ft 119kts
05-Dec-18 07:33 33.573902 -117.714037 350 3778ft 129kts
05-Dec-18 07:34 33.610827 -117.720678 349 3203ft 137kts
05-Dec-18 07:35 33.647664 -117.727310 349 2923ft 125kts
05-Dec-18 07:36 33.681318 -117.733166 349 2931ft 121kts
05-Dec-18 07:37 33.713797 -117.743133 343 2929ft 120kts
05-Dec-18 07:38 33.747246 -117.752712 343 2769ft 134kts
05-Dec-18 07:39 33.783998 -117.764165 336 2405ft 125kts
05-Dec-18 07:40 33.799152 -117.795913 230 1982ft 99kts
05-Dec-18 07:41 33.774448 -117.804438 202 1441ft 91kts
05-Dec-18 07:42 33.755888 -117.817077 212 1405ft 64kts
05-Dec-18 07:43 33.741037 -117.827773 208 1353ft 64kts
05-Dec-18 07:44 33.724387 -117.838002 207 1053ft 69kts
05-Dec-18 07:45 33.707838 -117.848430 207 669ft 63kts
05-Dec-18 07:46 33.692494 -117.858190 207 334ft 61kts
05-Dec-18 07:47 33.678040 -117.867402 214 59ft 44kts
05-Dec-18 07:48 33.674590 -117.868628 150 59ft 2kts
05-Dec-18 07:49 33.672725 -117.867408 225 59ft 20kts
05-Dec-18 07:50 33.668838 -117.871492 216 59ft 10kts
05-Dec-18 07:51 33.667339 -117.870995 97 59ft 4kts
05-Dec-18 07:52 32.812894 -117.140492 201 430ft 0kts

Navigation Log

Ident Type
Flight plan parsing failed, navigation log unavailable